createdAt,value
2017-11-17T00:00:37.851Z,1017.13
2017-11-17T00:01:37.855Z,1017.18
2017-11-17T00:02:37.754Z,1017.15
2017-11-17T00:03:37.719Z,1017.19
2017-11-17T00:04:37.670Z,1017.23
2017-11-17T00:05:37.625Z,1017.20
2017-11-17T00:06:37.591Z,1017.18
2017-11-17T00:07:37.552Z,1017.15
2017-11-17T00:08:37.507Z,1017.14
2017-11-17T00:09:37.465Z,1017.17
2017-11-17T00:10:37.452Z,1017.17
2017-11-17T00:11:37.399Z,1017.14
2017-11-17T00:12:37.356Z,1017.13
2017-11-17T00:13:37.317Z,1017.14
2017-11-17T00:14:37.282Z,1017.15
2017-11-17T00:15:37.235Z,1017.12
2017-11-17T00:16:37.195Z,1017.13
2017-11-17T00:17:37.156Z,1017.09
2017-11-17T00:18:37.130Z,1017.05
2017-11-17T00:19:37.103Z,1017.12
2017-11-17T00:20:37.043Z,1017.10
2017-11-17T00:21:37.025Z,1017.14
2017-11-17T00:22:36.961Z,1017.18
2017-11-17T00:23:36.933Z,1017.18
2017-11-17T00:24:36.906Z,1017.17
2017-11-17T00:25:36.858Z,1017.21
2017-11-17T00:26:36.815Z,1017.21
2017-11-17T00:27:36.768Z,1017.22
2017-11-17T00:28:36.729Z,1017.17
2017-11-17T00:29:36.693Z,1017.15
2017-11-17T00:30:36.653Z,1017.12
2017-11-17T00:31:36.612Z,1017.13
2017-11-17T00:32:36.572Z,1017.09
2017-11-17T00:33:36.541Z,1017.06
2017-11-17T00:34:36.494Z,1017.10
2017-11-17T00:35:36.463Z,1017.06
2017-11-17T00:36:36.419Z,1017.08
2017-11-17T00:37:36.375Z,1017.07
2017-11-17T00:38:36.343Z,1017.09
2017-11-17T00:39:36.305Z,1017.06
2017-11-17T00:40:36.261Z,1017.04
2017-11-17T00:41:36.252Z,1017.02
2017-11-17T00:42:36.189Z,1017.02
2017-11-17T00:43:36.153Z,1017.02
2017-11-17T00:44:36.115Z,1017.08
2017-11-17T00:45:36.069Z,1017.07
2017-11-17T00:46:36.028Z,1017.09
2017-11-17T00:47:35.994Z,1017.04
2017-11-17T00:48:35.955Z,1017.06
2017-11-17T00:49:35.933Z,1017.06
2017-11-17T00:50:35.884Z,1017.08
2017-11-17T00:51:35.841Z,1017.05
2017-11-17T00:52:35.796Z,1017.10
2017-11-17T00:53:35.764Z,1017.10
2017-11-17T00:54:35.726Z,1017.07
2017-11-17T00:55:35.683Z,1017.04
2017-11-17T00:56:35.649Z,1017.05
2017-11-17T00:57:35.613Z,1017.02
2017-11-17T00:58:35.566Z,1017.08
2017-11-17T00:59:35.525Z,1017.05
2017-11-17T01:00:35.494Z,1017.05
2017-11-17T01:01:35.453Z,1017.04
2017-11-17T01:02:35.416Z,1017.06
2017-11-17T01:03:35.376Z,1017.06
2017-11-17T01:04:35.332Z,1017.04
2017-11-17T01:05:35.305Z,1017.05
2017-11-17T01:06:35.276Z,1017.06
2017-11-17T01:07:36.132Z,1017.04
2017-11-17T01:08:35.207Z,1017.02
2017-11-17T01:09:35.143Z,1017.02
2017-11-17T01:10:35.117Z,1017.02
2017-11-17T01:11:35.059Z,1017.04
2017-11-17T01:12:35.029Z,1017.03
2017-11-17T01:13:34.982Z,1017.02
2017-11-17T01:14:34.946Z,1017.03
2017-11-17T01:15:34.913Z,1017.04
2017-11-17T01:16:34.867Z,1017.09
2017-11-17T01:17:34.830Z,1017.04
2017-11-17T01:18:34.790Z,1017.09
2017-11-17T01:19:34.752Z,1017.09
2017-11-17T01:20:34.712Z,1017.08
2017-11-17T01:21:34.682Z,1017.05
2017-11-17T01:22:34.636Z,1017.10
2017-11-17T01:23:34.624Z,1017.09
2017-11-17T01:24:34.555Z,1017.11
2017-11-17T01:25:34.525Z,1017.09
2017-11-17T01:26:34.481Z,1017.10
2017-11-17T01:27:34.440Z,1017.09
2017-11-17T01:28:34.404Z,1017.08
2017-11-17T01:29:34.364Z,1017.09
2017-11-17T01:30:34.352Z,1017.13
2017-11-17T01:31:34.286Z,1017.10
2017-11-17T01:32:34.248Z,1017.11
2017-11-17T01:33:34.217Z,1017.09
2017-11-17T01:34:34.168Z,1017.08
2017-11-17T01:35:34.132Z,1017.05
2017-11-17T01:36:34.091Z,1017.04
2017-11-17T01:37:34.053Z,1017.05
2017-11-17T01:38:34.032Z,1017.01
2017-11-17T01:39:33.984Z,1017.00
2017-11-17T01:40:33.948Z,1017.02
2017-11-17T01:41:33.904Z,1017.04
2017-11-17T01:42:33.863Z,1017.04
2017-11-17T01:43:33.825Z,1017.03
2017-11-17T01:44:33.782Z,1017.05
2017-11-17T01:45:33.756Z,1017.05
2017-11-17T01:46:33.741Z,1017.00
2017-11-17T01:47:33.680Z,1017.05
2017-11-17T01:48:33.640Z,1017.07
2017-11-17T01:49:33.599Z,1017.09
2017-11-17T01:50:33.553Z,1017.08
2017-11-17T01:51:33.523Z,1017.12
2017-11-17T01:52:33.485Z,1017.08
2017-11-17T01:53:33.434Z,1017.11
2017-11-17T01:54:33.398Z,1017.13
2017-11-17T01:55:33.359Z,1017.10
2017-11-17T01:56:33.318Z,1017.10
2017-11-17T01:57:33.284Z,1017.13
2017-11-17T01:58:33.249Z,1017.16
2017-11-17T01:59:33.201Z,1017.16
2017-11-17T02:00:33.161Z,1017.21
2017-11-17T02:01:33.126Z,1017.22
2017-11-17T02:02:33.093Z,1017.21
2017-11-17T02:03:33.050Z,1017.18
2017-11-17T02:04:33.007Z,1017.23
2017-11-17T02:05:32.970Z,1017.27
2017-11-17T02:06:32.940Z,1017.23
2017-11-17T02:07:32.906Z,1017.23
2017-11-17T02:08:32.852Z,1017.20
2017-11-17T02:09:32.818Z,1017.20
2017-11-17T02:10:32.782Z,1017.18
2017-11-17T02:11:32.736Z,1017.21
2017-11-17T02:12:32.705Z,1017.22
2017-11-17T02:13:32.661Z,1017.26
2017-11-17T02:14:32.621Z,1017.22
2017-11-17T02:15:32.582Z,1017.21
2017-11-17T02:16:32.548Z,1017.22
2017-11-17T02:17:32.507Z,1017.21
2017-11-17T02:18:32.487Z,1017.22
2017-11-17T02:19:32.430Z,1017.21
2017-11-17T02:20:32.386Z,1017.20
2017-11-17T02:21:32.347Z,1017.19
2017-11-17T02:22:32.317Z,1017.16
2017-11-17T02:23:32.270Z,1017.18
2017-11-17T02:24:32.242Z,1017.17
2017-11-17T02:25:32.206Z,1017.18
2017-11-17T02:26:32.155Z,1017.14
2017-11-17T02:27:32.126Z,1017.15
2017-11-17T02:28:32.078Z,1017.16
2017-11-17T02:29:32.037Z,1017.15
2017-11-17T02:30:32.000Z,1017.14
2017-11-17T02:31:31.964Z,1017.17
2017-11-17T02:32:31.922Z,1017.12
2017-11-17T02:33:31.911Z,1017.13
2017-11-17T02:34:31.850Z,1017.11
2017-11-17T02:35:31.806Z,1017.12
2017-11-17T02:36:31.772Z,1017.08
2017-11-17T02:37:31.734Z,1017.09
2017-11-17T02:38:31.690Z,1017.10
2017-11-17T02:39:31.650Z,1017.11
2017-11-17T02:40:31.614Z,1017.10
2017-11-17T02:41:31.572Z,1017.11
2017-11-17T02:42:31.539Z,1017.09
2017-11-17T02:43:31.510Z,1017.10
2017-11-17T02:44:31.459Z,1017.08
2017-11-17T02:45:31.419Z,1017.04
2017-11-17T02:46:31.382Z,1017.07
2017-11-17T02:47:31.340Z,1017.08
2017-11-17T02:48:31.300Z,1017.07
2017-11-17T02:49:31.280Z,1017.07
2017-11-17T02:50:31.233Z,1017.04
2017-11-17T02:51:31.185Z,1017.06
2017-11-17T02:52:31.151Z,1017.05
2017-11-17T02:53:31.113Z,1017.02
2017-11-17T02:54:31.072Z,1017.04
2017-11-17T02:55:31.030Z,1017.07
2017-11-17T02:56:30.998Z,1017.05
2017-11-17T02:57:30.956Z,1017.09
2017-11-17T02:58:30.917Z,1017.08
2017-11-17T02:59:30.904Z,1017.09
2017-11-17T03:00:30.837Z,1017.05
2017-11-17T03:01:30.812Z,1017.07
2017-11-17T03:02:30.760Z,1017.05
2017-11-17T03:03:30.723Z,1017.09
2017-11-17T03:04:30.684Z,1017.09
2017-11-17T03:05:30.657Z,1017.09
2017-11-17T03:06:30.604Z,1017.10
2017-11-17T03:07:30.564Z,1017.08
2017-11-17T03:08:30.526Z,1017.07
2017-11-17T03:09:30.489Z,1017.08
2017-11-17T03:10:30.450Z,1017.06
2017-11-17T03:11:30.415Z,1017.07
2017-11-17T03:12:30.373Z,1017.06
2017-11-17T03:13:30.338Z,1017.09
2017-11-17T03:14:30.298Z,1017.07
2017-11-17T03:15:30.260Z,1017.09
2017-11-17T03:16:30.220Z,1017.05
2017-11-17T03:17:30.182Z,1017.06
2017-11-17T03:18:30.149Z,1017.03
2017-11-17T03:19:30.105Z,1017.07
2017-11-17T03:20:30.067Z,1017.07
2017-11-17T03:21:30.025Z,1017.09
2017-11-17T03:22:29.986Z,1017.11
2017-11-17T03:23:29.951Z,1017.06
2017-11-17T03:24:29.906Z,1017.10
2017-11-17T03:25:29.877Z,1017.09
2017-11-17T03:26:29.827Z,1017.10
2017-11-17T03:27:29.797Z,1017.10
2017-11-17T03:28:29.757Z,1017.13
2017-11-17T03:29:29.723Z,1017.09
2017-11-17T03:30:29.681Z,1017.10
2017-11-17T03:31:29.645Z,1017.16
2017-11-17T03:32:29.601Z,1017.11
2017-11-17T03:33:29.569Z,1017.15
2017-11-17T03:34:29.519Z,1017.12
2017-11-17T03:35:29.482Z,1017.13
2017-11-17T03:36:29.442Z,1017.15
2017-11-17T03:37:29.408Z,1017.13
2017-11-17T03:38:29.370Z,1017.17
2017-11-17T03:39:29.332Z,1017.17
2017-11-17T03:40:29.289Z,1017.16
2017-11-17T03:41:29.250Z,1017.20
2017-11-17T03:42:29.210Z,1017.18
2017-11-17T03:43:29.173Z,1017.20
2017-11-17T03:44:29.134Z,1017.19
2017-11-17T03:45:29.097Z,1017.21
2017-11-17T03:46:29.059Z,1017.19
2017-11-17T03:47:29.022Z,1017.19
2017-11-17T03:48:28.978Z,1017.20
2017-11-17T03:49:28.937Z,1017.19
2017-11-17T03:50:28.903Z,1017.18
2017-11-17T03:51:28.859Z,1017.20
2017-11-17T03:52:28.819Z,1017.22
2017-11-17T03:53:28.784Z,1017.23
2017-11-17T03:54:28.743Z,1017.24
2017-11-17T03:55:28.710Z,1017.26
2017-11-17T03:56:28.673Z,1017.21
2017-11-17T03:57:28.628Z,1017.25
2017-11-17T03:58:28.590Z,1017.29
2017-11-17T03:59:28.560Z,1017.24
2017-11-17T04:00:28.515Z,1017.26
2017-11-17T04:01:28.473Z,1017.28
2017-11-17T04:02:28.435Z,1017.28
2017-11-17T04:03:28.398Z,1017.30
2017-11-17T04:04:28.363Z,1017.34
2017-11-17T04:05:28.322Z,1017.35
2017-11-17T04:06:28.279Z,1017.36
2017-11-17T04:07:28.240Z,1017.32
2017-11-17T04:08:28.209Z,1017.37
2017-11-17T04:09:28.164Z,1017.36
2017-11-17T04:10:28.127Z,1017.38
2017-11-17T04:11:28.086Z,1017.38
2017-11-17T04:12:28.078Z,1017.40
2017-11-17T04:13:28.013Z,1017.39
2017-11-17T04:14:27.974Z,1017.42
2017-11-17T04:15:27.931Z,1017.43
2017-11-17T04:16:27.891Z,1017.43
2017-11-17T04:17:27.862Z,1017.47
2017-11-17T04:18:27.818Z,1017.47
2017-11-17T04:19:27.779Z,1017.44
2017-11-17T04:20:27.742Z,1017.45
2017-11-17T04:21:27.704Z,1017.48
2017-11-17T04:22:27.684Z,1017.51
2017-11-17T04:23:27.638Z,1017.52
2017-11-17T04:24:27.578Z,1017.52
2017-11-17T04:25:27.541Z,1017.53
2017-11-17T04:26:27.517Z,1017.52
2017-11-17T04:27:27.469Z,1017.50
2017-11-17T04:28:27.426Z,1017.57
2017-11-17T04:29:27.385Z,1017.60
2017-11-17T04:30:27.348Z,1017.57
2017-11-17T04:31:27.306Z,1017.57
2017-11-17T04:32:27.268Z,1017.60
2017-11-17T04:33:27.231Z,1017.60
2017-11-17T04:34:27.195Z,1017.61
2017-11-17T04:35:27.198Z,1017.62
2017-11-17T04:36:27.113Z,1017.63
2017-11-17T04:37:27.075Z,1017.63
2017-11-17T04:38:27.033Z,1017.64
2017-11-17T04:39:26.997Z,1017.67
2017-11-17T04:40:27.085Z,1017.66
2017-11-17T04:41:26.918Z,1017.67
2017-11-17T04:42:26.880Z,1017.65
2017-11-17T04:43:26.858Z,1017.65
2017-11-17T04:44:26.809Z,1017.69
2017-11-17T04:45:26.759Z,1017.65
2017-11-17T04:46:26.728Z,1017.69
2017-11-17T04:47:26.685Z,1017.72
2017-11-17T04:48:26.642Z,1017.74
2017-11-17T04:49:26.606Z,1017.74
2017-11-17T04:50:26.567Z,1017.74
2017-11-17T04:51:26.535Z,1017.75
2017-11-17T04:52:26.490Z,1017.76
2017-11-17T04:53:26.451Z,1017.73
2017-11-17T04:54:26.411Z,1017.75
2017-11-17T04:55:26.386Z,1017.78
2017-11-17T04:56:26.334Z,1017.80
2017-11-17T04:57:26.298Z,1017.86
2017-11-17T04:58:26.259Z,1017.86
2017-11-17T04:59:26.216Z,1017.84
2017-11-17T05:00:26.185Z,1017.80
2017-11-17T05:01:26.148Z,1017.78
2017-11-17T05:02:26.100Z,1017.82
2017-11-17T05:03:26.061Z,1017.79
2017-11-17T05:04:26.037Z,1017.83
2017-11-17T05:05:26.014Z,1017.85
2017-11-17T05:06:25.945Z,1017.85
2017-11-17T05:07:25.923Z,1017.83
2017-11-17T05:08:25.868Z,1017.86
2017-11-17T05:09:25.828Z,1017.79
2017-11-17T05:10:25.790Z,1017.84
2017-11-17T05:11:25.754Z,1017.80
2017-11-17T05:12:25.711Z,1017.84
2017-11-17T05:13:25.670Z,1017.84
2017-11-17T05:14:25.633Z,1017.87
2017-11-17T05:15:25.599Z,1017.82
2017-11-17T05:16:25.601Z,1017.93
2017-11-17T05:17:25.521Z,1017.87
2017-11-17T05:18:25.476Z,1017.92
2017-11-17T05:19:25.437Z,1017.92
2017-11-17T05:20:25.406Z,1017.93
2017-11-17T05:21:25.361Z,1017.91
2017-11-17T05:22:25.323Z,1017.94
2017-11-17T05:23:25.282Z,1017.96
2017-11-17T05:24:25.255Z,1017.91
2017-11-17T05:25:25.201Z,1017.93
2017-11-17T05:26:25.163Z,1017.95
2017-11-17T05:27:25.139Z,1017.96
2017-11-17T05:28:25.081Z,1017.97
2017-11-17T05:29:25.041Z,1018.01
2017-11-17T05:30:25.013Z,1017.99
2017-11-17T05:31:24.967Z,1018.03
2017-11-17T05:32:24.934Z,1018.02
2017-11-17T05:33:24.888Z,1018.05
2017-11-17T05:34:24.849Z,1018.06
2017-11-17T05:35:24.827Z,1018.06
2017-11-17T05:36:24.769Z,1018.08
2017-11-17T05:37:24.738Z,1018.13
2017-11-17T05:38:24.705Z,1018.12
2017-11-17T05:39:24.670Z,1018.13
2017-11-17T05:40:24.619Z,1018.13
2017-11-17T05:41:24.571Z,1018.14
2017-11-17T05:42:24.534Z,1018.19
2017-11-17T05:43:24.499Z,1018.20
2017-11-17T05:44:24.491Z,1018.18
2017-11-17T05:45:24.417Z,1018.15
2017-11-17T05:46:24.376Z,1018.14
2017-11-17T05:47:24.340Z,1018.16
2017-11-17T05:48:24.298Z,1018.19
2017-11-17T05:49:24.259Z,1018.20
2017-11-17T05:50:24.230Z,1018.20
2017-11-17T05:51:24.181Z,1018.21
2017-11-17T05:52:24.140Z,1018.25
2017-11-17T05:53:24.102Z,1018.25
2017-11-17T05:54:24.062Z,1018.25
2017-11-17T05:55:24.022Z,1018.27
2017-11-17T05:56:23.985Z,1018.30
2017-11-17T05:57:23.945Z,1018.31
2017-11-17T05:58:23.903Z,1018.32
2017-11-17T05:59:23.865Z,1018.33
2017-11-17T06:00:23.831Z,1018.31
2017-11-17T06:01:23.792Z,1018.31
2017-11-17T06:02:23.751Z,1018.33
2017-11-17T06:03:23.707Z,1018.32
2017-11-17T06:04:23.669Z,1018.37
2017-11-17T06:05:23.630Z,1018.43
2017-11-17T06:06:23.594Z,1018.38
2017-11-17T06:07:23.549Z,1018.42
2017-11-17T06:08:23.510Z,1018.43
2017-11-17T06:09:23.470Z,1018.42
2017-11-17T06:10:23.440Z,1018.41
2017-11-17T06:11:23.392Z,1018.43
2017-11-17T06:12:23.356Z,1018.47
2017-11-17T06:13:23.314Z,1018.47
2017-11-17T06:14:23.279Z,1018.44
2017-11-17T06:15:23.231Z,1018.47
2017-11-17T06:16:23.191Z,1018.49
2017-11-17T06:17:23.154Z,1018.48
2017-11-17T06:18:23.124Z,1018.49
2017-11-17T06:19:23.075Z,1018.47
2017-11-17T06:20:23.039Z,1018.51
2017-11-17T06:21:22.997Z,1018.50
2017-11-17T06:22:22.967Z,1018.54
2017-11-17T06:23:22.919Z,1018.55
2017-11-17T06:24:22.885Z,1018.56
2017-11-17T06:25:22.844Z,1018.53
2017-11-17T06:26:22.804Z,1018.61
2017-11-17T06:27:22.830Z,1018.57
2017-11-17T06:28:22.755Z,1018.59
2017-11-17T06:29:22.687Z,1018.60
2017-11-17T06:30:22.673Z,1018.59
2017-11-17T06:31:22.610Z,1018.60
2017-11-17T06:32:22.569Z,1018.60
2017-11-17T06:33:22.528Z,1018.68
2017-11-17T06:34:22.518Z,1018.72
2017-11-17T06:35:22.469Z,1018.76
2017-11-17T06:36:22.414Z,1018.76
2017-11-17T06:37:22.367Z,1018.78
2017-11-17T06:38:22.328Z,1018.78
2017-11-17T06:39:22.290Z,1018.83
2017-11-17T06:40:22.246Z,1018.86
2017-11-17T06:41:22.211Z,1018.85
2017-11-17T06:42:22.172Z,1018.89
2017-11-17T06:43:22.130Z,1018.91
2017-11-17T06:44:22.104Z,1018.95
2017-11-17T06:45:22.057Z,1018.96
2017-11-17T06:46:22.713Z,1018.96
2017-11-17T06:47:21.972Z,1018.99
2017-11-17T06:48:21.951Z,1018.99
2017-11-17T06:49:21.888Z,1019.00
2017-11-17T06:50:21.858Z,1019.01
2017-11-17T06:51:21.815Z,1019.01
2017-11-17T06:52:21.772Z,1019.06
2017-11-17T06:53:21.735Z,1019.05
2017-11-17T06:54:21.698Z,1019.08
2017-11-17T06:55:21.659Z,1019.06
2017-11-17T06:56:21.613Z,1019.09
2017-11-17T06:57:21.575Z,1019.12
2017-11-17T06:58:21.533Z,1019.14
2017-11-17T06:59:21.510Z,1019.13
2017-11-17T07:00:21.468Z,1019.17
2017-11-17T07:01:21.416Z,1019.18
2017-11-17T07:02:21.375Z,1019.20
2017-11-17T07:03:21.345Z,1019.20
2017-11-17T07:04:21.298Z,1019.18
2017-11-17T07:05:21.258Z,1019.22
2017-11-17T07:06:21.213Z,1019.21
2017-11-17T07:07:21.181Z,1019.23
2017-11-17T07:08:21.140Z,1019.28
2017-11-17T07:09:21.094Z,1019.26
2017-11-17T07:10:21.105Z,1019.28
2017-11-17T07:11:21.019Z,1019.27
2017-11-17T07:12:21.000Z,1019.35
2017-11-17T07:13:20.942Z,1019.32
2017-11-17T07:14:20.905Z,1019.32
2017-11-17T07:15:20.864Z,1019.31
2017-11-17T07:16:20.827Z,1019.31
2017-11-17T07:17:20.789Z,1019.33
2017-11-17T07:18:20.742Z,1019.31
2017-11-17T07:19:20.703Z,1019.33
2017-11-17T07:20:20.661Z,1019.33
2017-11-17T07:21:20.625Z,1019.36
2017-11-17T07:22:20.641Z,1019.39
2017-11-17T07:23:20.572Z,1019.44
2017-11-17T07:24:20.498Z,1019.42
2017-11-17T07:25:20.460Z,1019.48
2017-11-17T07:26:20.424Z,1019.52
2017-11-17T07:27:20.395Z,1019.50
2017-11-17T07:28:20.399Z,1019.55
2017-11-17T07:29:20.302Z,1019.56
2017-11-17T07:30:20.289Z,1019.57
2017-11-17T07:31:20.257Z,1019.63
2017-11-17T07:32:20.200Z,1019.60
2017-11-17T07:33:20.146Z,1019.64
2017-11-17T07:34:20.171Z,1019.62
2017-11-17T07:35:20.064Z,1019.65
2017-11-17T07:36:20.069Z,1019.66
2017-11-17T07:37:19.995Z,1019.63
2017-11-17T07:38:20.070Z,1019.69
2017-11-17T07:39:19.926Z,1019.68
2017-11-17T07:40:19.916Z,1019.72
2017-11-17T07:41:19.828Z,1019.70
2017-11-17T07:42:19.795Z,1019.75
2017-11-17T07:43:19.753Z,1019.77
2017-11-17T07:44:19.715Z,1019.84
2017-11-17T07:45:19.667Z,1019.81
2017-11-17T07:46:19.626Z,1019.81
2017-11-17T07:47:19.588Z,1019.81
2017-11-17T07:48:19.547Z,1019.83
2017-11-17T07:49:19.509Z,1019.83
2017-11-17T07:50:19.473Z,1019.86
2017-11-17T07:51:19.429Z,1019.82
2017-11-17T07:52:19.391Z,1019.86
2017-11-17T07:53:19.358Z,1019.83
2017-11-17T07:54:19.314Z,1019.87
2017-11-17T07:55:19.313Z,1019.87
2017-11-17T07:56:19.238Z,1019.84
2017-11-17T07:57:19.203Z,1019.86
2017-11-17T07:58:19.156Z,1019.87
2017-11-17T07:59:19.117Z,1019.89
2017-11-17T08:00:19.110Z,1019.93
2017-11-17T08:01:19.040Z,1019.92
2017-11-17T08:02:19.015Z,1019.92
2017-11-17T08:03:18.960Z,1019.92
2017-11-17T08:04:18.919Z,1019.95
2017-11-17T08:05:18.881Z,1019.95
2017-11-17T08:06:18.843Z,1020.00
2017-11-17T08:07:18.821Z,1019.98
2017-11-17T08:08:18.786Z,1019.94
2017-11-17T08:09:18.720Z,1020.03
2017-11-17T08:10:18.683Z,1019.98
2017-11-17T08:11:18.644Z,1019.96
2017-11-17T08:12:18.599Z,1019.95
2017-11-17T08:13:18.558Z,1020.05
2017-11-17T08:14:18.533Z,1020.04
2017-11-17T08:15:18.539Z,1020.06
2017-11-17T08:16:18.443Z,1020.04
2017-11-17T08:17:18.418Z,1020.04
2017-11-17T08:18:18.404Z,1020.09
2017-11-17T08:19:18.330Z,1020.05
2017-11-17T08:20:18.286Z,1020.03
2017-11-17T08:21:18.246Z,1020.08
2017-11-17T08:22:18.203Z,1020.07
2017-11-17T08:23:18.164Z,1020.10
2017-11-17T08:24:18.167Z,1020.13
2017-11-17T08:25:18.091Z,1020.13
2017-11-17T08:26:18.055Z,1020.07
2017-11-17T08:27:18.015Z,1020.12
2017-11-17T08:28:18.765Z,1020.19
2017-11-17T08:29:17.947Z,1020.18
2017-11-17T08:30:17.886Z,1020.20
2017-11-17T08:31:17.877Z,1020.25
2017-11-17T08:32:17.814Z,1020.25
2017-11-17T08:33:19.733Z,1020.28
2017-11-17T08:34:17.768Z,1020.25
2017-11-17T08:35:17.707Z,1020.28
2017-11-17T08:36:17.652Z,1020.29
2017-11-17T08:37:17.620Z,1020.28
2017-11-17T08:38:19.218Z,1020.31
2017-11-17T08:39:17.540Z,1020.30
2017-11-17T08:40:17.493Z,1020.30
2017-11-17T08:41:17.474Z,1020.33
2017-11-17T08:42:17.416Z,1020.33
2017-11-17T08:43:20.263Z,1020.32
2017-11-17T08:44:17.356Z,1020.37
2017-11-17T08:45:17.295Z,1020.33
2017-11-17T08:46:20.846Z,1020.34
2017-11-17T08:47:19.232Z,1020.35
2017-11-17T08:48:18.735Z,1020.40
2017-11-17T08:49:17.136Z,1020.41
2017-11-17T08:50:17.736Z,1020.42
2017-11-17T08:51:21.811Z,1020.42
2017-11-17T08:52:17.026Z,1020.47
2017-11-17T08:53:16.981Z,1020.51
2017-11-17T08:54:16.952Z,1020.51
2017-11-17T08:55:16.910Z,1020.55
2017-11-17T08:56:16.861Z,1020.55
2017-11-17T08:57:16.832Z,1020.57
2017-11-17T08:58:16.790Z,1020.57
2017-11-17T08:59:16.755Z,1020.55
2017-11-17T09:00:16.702Z,1020.61
2017-11-17T09:01:16.667Z,1020.61
2017-11-17T09:02:16.629Z,1020.58
2017-11-17T09:03:16.585Z,1020.61
2017-11-17T09:04:16.548Z,1020.59
2017-11-17T09:05:16.513Z,1020.64
2017-11-17T09:06:16.469Z,1020.64
2017-11-17T09:07:16.453Z,1020.63
2017-11-17T09:08:16.411Z,1020.71
2017-11-17T09:09:16.357Z,1020.70
2017-11-17T09:10:16.324Z,1020.66
2017-11-17T09:11:16.277Z,1020.69
2017-11-17T09:12:16.241Z,1020.70
2017-11-17T09:13:16.201Z,1020.74
2017-11-17T09:14:16.156Z,1020.72
2017-11-17T09:15:16.127Z,1020.68
2017-11-17T09:16:16.097Z,1020.74
2017-11-17T09:17:16.043Z,1020.72
2017-11-17T09:18:16.024Z,1020.76
2017-11-17T09:19:15.968Z,1020.72
2017-11-17T09:20:15.931Z,1020.72
2017-11-17T09:21:15.882Z,1020.76
2017-11-17T09:22:15.845Z,1020.74
2017-11-17T09:23:15.809Z,1020.79
2017-11-17T09:24:15.766Z,1020.77
2017-11-17T09:25:15.726Z,1020.77
2017-11-17T09:26:15.691Z,1020.82
2017-11-17T09:27:15.653Z,1020.86
2017-11-17T09:28:15.640Z,1020.86
2017-11-17T09:29:15.571Z,1020.84
2017-11-17T09:30:15.536Z,1020.87
2017-11-17T09:31:15.492Z,1020.87
2017-11-17T09:32:15.452Z,1020.91
2017-11-17T09:33:15.413Z,1020.89
2017-11-17T09:34:15.391Z,1020.90
2017-11-17T09:35:15.337Z,1020.91
2017-11-17T09:36:16.242Z,1020.88
2017-11-17T09:37:15.259Z,1020.94
2017-11-17T09:38:15.233Z,1020.92
2017-11-17T09:39:15.184Z,1020.92
2017-11-17T09:40:15.147Z,1020.92
2017-11-17T09:41:15.120Z,1020.95
2017-11-17T09:42:15.063Z,1020.94
2017-11-17T09:43:15.046Z,1020.92
2017-11-17T09:44:16.724Z,1020.91
2017-11-17T09:45:14.944Z,1020.91
2017-11-17T09:46:14.902Z,1020.91
2017-11-17T09:47:14.867Z,1020.93
2017-11-17T09:48:14.841Z,1020.92
2017-11-17T09:49:14.796Z,1020.93
2017-11-17T09:50:14.750Z,1020.96
2017-11-17T09:51:14.727Z,1020.90
2017-11-17T09:52:14.671Z,1021.01
2017-11-17T09:53:14.632Z,1020.95
2017-11-17T09:54:14.591Z,1020.95
2017-11-17T09:55:14.574Z,1020.94
2017-11-17T09:56:14.519Z,1020.94
2017-11-17T09:57:14.477Z,1020.92
2017-11-17T09:58:14.455Z,1020.96
2017-11-17T09:59:14.402Z,1020.92
2017-11-17T10:00:14.364Z,1020.89
2017-11-17T10:01:14.319Z,1020.93
2017-11-17T10:02:14.283Z,1020.89
2017-11-17T10:03:14.262Z,1020.93
2017-11-17T10:04:14.201Z,1020.89
2017-11-17T10:05:14.189Z,1020.88
2017-11-17T10:06:14.214Z,1020.95
2017-11-17T10:07:18.726Z,1020.89
2017-11-17T10:08:14.069Z,1020.92
2017-11-17T10:09:14.018Z,1020.94
2017-11-17T10:10:13.969Z,1020.96
2017-11-17T10:11:14.745Z,1020.96
2017-11-17T10:12:13.897Z,1020.93
2017-11-17T10:13:13.880Z,1020.93
2017-11-17T10:14:13.816Z,1020.86
2017-11-17T10:15:14.754Z,1020.92
2017-11-17T10:16:13.754Z,1020.90
2017-11-17T10:17:13.701Z,1020.87
2017-11-17T10:18:13.664Z,1020.86
2017-11-17T10:19:13.620Z,1020.90
2017-11-17T10:20:14.252Z,1020.88
2017-11-17T10:21:13.549Z,1020.84
2017-11-17T10:22:13.524Z,1020.90
2017-11-17T10:23:13.473Z,1020.85
2017-11-17T10:24:13.454Z,1020.84
2017-11-17T10:25:13.390Z,1020.93
2017-11-17T10:26:14.253Z,1020.92
2017-11-17T10:27:13.313Z,1020.86
2017-11-17T10:28:13.300Z,1020.89
2017-11-17T10:29:14.249Z,1020.90
2017-11-17T10:30:13.197Z,1020.90
2017-11-17T10:31:13.183Z,1020.92
2017-11-17T10:32:13.135Z,1020.90
2017-11-17T10:33:13.092Z,1020.87
2017-11-17T10:34:13.063Z,1020.87
2017-11-17T10:35:13.012Z,1020.87
2017-11-17T10:36:12.971Z,1020.85
2017-11-17T10:37:12.926Z,1020.89
2017-11-17T10:38:12.898Z,1020.93
2017-11-17T10:39:12.861Z,1020.89
2017-11-17T10:40:12.818Z,1020.90
2017-11-17T10:41:12.792Z,1020.87
2017-11-17T10:42:12.746Z,1020.86
2017-11-17T10:43:12.741Z,1020.88
2017-11-17T10:44:12.663Z,1020.86
2017-11-17T10:45:12.621Z,1020.85
2017-11-17T10:46:12.591Z,1020.94
2017-11-17T10:47:12.571Z,1020.91
2017-11-17T10:48:13.262Z,1020.87
2017-11-17T10:49:12.472Z,1020.91
2017-11-17T10:50:12.446Z,1020.85
2017-11-17T10:51:12.407Z,1020.87
2017-11-17T10:52:12.358Z,1020.80
2017-11-17T10:53:12.337Z,1020.86
2017-11-17T10:54:12.276Z,1020.88
2017-11-17T10:55:12.243Z,1020.88
2017-11-17T10:56:12.196Z,1020.91
2017-11-17T10:57:12.168Z,1020.88
2017-11-17T10:58:12.131Z,1020.84
2017-11-17T10:59:12.089Z,1020.91
2017-11-17T11:00:12.062Z,1020.86
2017-11-17T11:01:12.012Z,1020.86
2017-11-17T11:02:12.362Z,1020.87
2017-11-17T11:03:11.927Z,1020.84
2017-11-17T11:04:11.897Z,1020.90
2017-11-17T11:05:11.853Z,1020.88
2017-11-17T11:06:11.816Z,1020.91
2017-11-17T11:07:11.776Z,1020.86
2017-11-17T11:08:11.745Z,1020.85
2017-11-17T11:09:11.716Z,1020.78
2017-11-17T11:10:11.660Z,1020.84
2017-11-17T11:11:11.623Z,1020.87
2017-11-17T11:12:11.587Z,1020.86
2017-11-17T11:13:11.564Z,1020.81
2017-11-17T11:14:11.505Z,1020.83
2017-11-17T11:15:11.469Z,1020.85
2017-11-17T11:16:11.430Z,1020.87
2017-11-17T11:17:11.391Z,1020.84
2017-11-17T11:18:11.352Z,1020.82
2017-11-17T11:19:11.325Z,1020.83
2017-11-17T11:20:11.276Z,1020.82
2017-11-17T11:21:11.234Z,1020.84
2017-11-17T11:22:11.204Z,1020.87
2017-11-17T11:23:11.160Z,1020.86
2017-11-17T11:24:11.120Z,1020.82
2017-11-17T11:25:11.082Z,1020.88
2017-11-17T11:26:11.042Z,1020.84
2017-11-17T11:27:11.016Z,1020.87
2017-11-17T11:28:10.976Z,1020.87
2017-11-17T11:29:10.930Z,1020.86
2017-11-17T11:30:10.891Z,1020.82
2017-11-17T11:31:10.853Z,1020.82
2017-11-17T11:32:10.816Z,1020.87
2017-11-17T11:33:10.777Z,1020.83
2017-11-17T11:34:10.748Z,1020.86
2017-11-17T11:35:10.711Z,1020.86
2017-11-17T11:36:10.663Z,1020.83
2017-11-17T11:37:10.631Z,1020.83
2017-11-17T11:38:10.598Z,1020.81
2017-11-17T11:39:10.547Z,1020.88
2017-11-17T11:40:10.511Z,1020.85
2017-11-17T11:41:10.471Z,1020.84
2017-11-17T11:42:10.433Z,1020.82
2017-11-17T11:43:10.400Z,1020.86
2017-11-17T11:44:10.357Z,1020.90
2017-11-17T11:45:10.319Z,1020.91
2017-11-17T11:46:10.278Z,1020.85
2017-11-17T11:47:10.242Z,1020.85
2017-11-17T11:48:11.765Z,1020.90
2017-11-17T11:49:10.170Z,1020.85
2017-11-17T11:50:10.128Z,1020.86
2017-11-17T11:51:10.096Z,1020.82
2017-11-17T11:52:10.052Z,1020.84
2017-11-17T11:53:10.006Z,1020.82
2017-11-17T11:54:09.970Z,1020.87
2017-11-17T11:55:09.943Z,1020.84
2017-11-17T11:56:09.895Z,1020.83
2017-11-17T11:57:10.764Z,1020.82
2017-11-17T11:58:09.817Z,1020.84
2017-11-17T11:59:09.780Z,1020.87
2017-11-17T12:00:09.748Z,1020.89
2017-11-17T12:01:09.727Z,1020.82
2017-11-17T12:02:09.665Z,1020.87
2017-11-17T12:03:09.646Z,1020.86
2017-11-17T12:04:09.590Z,1020.90
2017-11-17T12:05:09.571Z,1020.85